sensor_id;sensor_type;location;lat;lon;timestamp;P1;durP1;ratioP1;P2;durP2;ratioP2
49440;SDS011;35317;51.978;6.296;2023-04-03T00:02:19;1.60;;;1.00;;
49440;SDS011;35317;51.978;6.296;2023-04-03T00:07:20;1.67;;;0.73;;
49440;SDS011;35317;51.978;6.296;2023-04-03T00:12:21;1.33;;;0.88;;
49440;SDS011;35317;51.978;6.296;2023-04-03T00:17:22;4.68;;;0.90;;
49440;SDS011;35317;51.978;6.296;2023-04-03T00:22:22;1.20;;;0.90;;
49440;SDS011;35317;51.978;6.296;2023-04-03T00:27:24;2.03;;;0.63;;
49440;SDS011;35317;51.978;6.296;2023-04-03T00:32:25;1.85;;;0.80;;
49440;SDS011;35317;51.978;6.296;2023-04-03T00:37:25;1.80;;;0.82;;
49440;SDS011;35317;51.978;6.296;2023-04-03T00:42:26;1.60;;;1.00;;
49440;SDS011;35317;51.978;6.296;2023-04-03T00:47:27;0.73;;;0.52;;
49440;SDS011;35317;51.978;6.296;2023-04-03T00:52:29;1.42;;;0.80;;
49440;SDS011;35317;51.978;6.296;2023-04-03T00:57:31;2.47;;;0.88;;
49440;SDS011;35317;51.978;6.296;2023-04-03T01:02:32;1.20;;;0.70;;
49440;SDS011;35317;51.978;6.296;2023-04-03T01:07:33;3.85;;;0.90;;
49440;SDS011;35317;51.978;6.296;2023-04-03T01:12:36;2.92;;;1.00;;
49440;SDS011;35317;51.978;6.296;2023-04-03T01:17:43;1.77;;;0.60;;
49440;SDS011;35317;51.978;6.296;2023-04-03T01:23:10;3.85;;;0.82;;
49440;SDS011;35317;51.978;6.296;2023-04-03T01:28:23;1.05;;;0.60;;
49440;SDS011;35317;51.978;6.296;2023-04-03T01:33:31;1.13;;;0.73;;
49440;SDS011;35317;51.978;6.296;2023-04-03T01:38:33;1.73;;;0.98;;
49440;SDS011;35317;51.978;6.296;2023-04-03T01:43:33;1.45;;;0.80;;
49440;SDS011;35317;51.978;6.296;2023-04-03T01:48:34;3.75;;;0.98;;
49440;SDS011;35317;51.978;6.296;2023-04-03T01:53:35;2.60;;;0.98;;
49440;SDS011;35317;51.978;6.296;2023-04-03T01:58:36;3.17;;;0.95;;
49440;SDS011;35317;51.978;6.296;2023-04-03T02:03:37;5.75;;;0.70;;
49440;SDS011;35317;51.978;6.296;2023-04-03T02:08:38;5.32;;;0.90;;
49440;SDS011;35317;51.978;6.296;2023-04-03T02:13:38;1.90;;;0.50;;
49440;SDS011;35317;51.978;6.296;2023-04-03T02:18:39;1.65;;;0.88;;
49440;SDS011;35317;51.978;6.296;2023-04-03T02:23:40;2.17;;;0.85;;
49440;SDS011;35317;51.978;6.296;2023-04-03T02:28:41;3.13;;;1.20;;
49440;SDS011;35317;51.978;6.296;2023-04-03T02:33:42;4.80;;;1.15;;
49440;SDS011;35317;51.978;6.296;2023-04-03T02:38:43;1.80;;;1.10;;
49440;SDS011;35317;51.978;6.296;2023-04-03T02:43:45;1.65;;;1.10;;
49440;SDS011;35317;51.978;6.296;2023-04-03T02:48:46;1.60;;;0.90;;
49440;SDS011;35317;51.978;6.296;2023-04-03T02:53:46;1.52;;;0.60;;
49440;SDS011;35317;51.978;6.296;2023-04-03T02:58:47;3.45;;;0.90;;
49440;SDS011;35317;51.978;6.296;2023-04-03T03:03:48;1.83;;;1.15;;
49440;SDS011;35317;51.978;6.296;2023-04-03T03:08:49;2.90;;;1.30;;
49440;SDS011;35317;51.978;6.296;2023-04-03T03:13:50;1.35;;;0.90;;
49440;SDS011;35317;51.978;6.296;2023-04-03T03:18:50;1.05;;;0.65;;
49440;SDS011;35317;51.978;6.296;2023-04-03T03:23:51;1.48;;;1.00;;
49440;SDS011;35317;51.978;6.296;2023-04-03T03:28:52;1.73;;;1.10;;
49440;SDS011;35317;51.978;6.296;2023-04-03T03:33:53;2.10;;;1.00;;
49440;SDS011;35317;51.978;6.296;2023-04-03T03:38:54;1.80;;;0.90;;
49440;SDS011;35317;51.978;6.296;2023-04-03T03:43:54;1.52;;;0.90;;
49440;SDS011;35317;51.978;6.296;2023-04-03T03:48:55;3.22;;;0.85;;
49440;SDS011;35317;51.978;6.296;2023-04-03T03:53:56;1.55;;;0.93;;
49440;SDS011;35317;51.978;6.296;2023-04-03T03:58:57;2.75;;;1.02;;
49440;SDS011;35317;51.978;6.296;2023-04-03T04:03:58;1.75;;;0.90;;
49440;SDS011;35317;51.978;6.296;2023-04-03T04:08:58;2.97;;;1.20;;
49440;SDS011;35317;51.978;6.296;2023-04-03T04:13:59;4.22;;;1.15;;
49440;SDS011;35317;51.978;6.296;2023-04-03T04:19:00;2.53;;;1.10;;
49440;SDS011;35317;51.978;6.296;2023-04-03T04:24:01;2.63;;;1.20;;
49440;SDS011;35317;51.978;6.296;2023-04-03T04:29:01;2.03;;;1.17;;
49440;SDS011;35317;51.978;6.296;2023-04-03T04:34:02;4.65;;;0.93;;
49440;SDS011;35317;51.978;6.296;2023-04-03T04:39:03;3.25;;;1.02;;
49440;SDS011;35317;51.978;6.296;2023-04-03T04:44:04;2.58;;;0.80;;
49440;SDS011;35317;51.978;6.296;2023-04-03T04:49:04;2.05;;;1.00;;
49440;SDS011;35317;51.978;6.296;2023-04-03T04:54:05;2.45;;;1.17;;
49440;SDS011;35317;51.978;6.296;2023-04-03T04:59:06;6.30;;;1.15;;
49440;SDS011;35317;51.978;6.296;2023-04-03T05:04:07;1.38;;;0.95;;
49440;SDS011;35317;51.978;6.296;2023-04-03T05:09:08;1.88;;;0.85;;
49440;SDS011;35317;51.978;6.296;2023-04-03T05:14:09;2.75;;;0.80;;
49440;SDS011;35317;51.978;6.296;2023-04-03T05:19:10;2.25;;;1.17;;
49440;SDS011;35317;51.978;6.296;2023-04-03T05:24:11;2.05;;;0.82;;
49440;SDS011;35317;51.978;6.296;2023-04-03T05:29:12;2.30;;;1.08;;
49440;SDS011;35317;51.978;6.296;2023-04-03T05:34:13;1.95;;;0.98;;
49440;SDS011;35317;51.978;6.296;2023-04-03T05:39:13;3.33;;;1.10;;
49440;SDS011;35317;51.978;6.296;2023-04-03T05:44:14;1.67;;;0.75;;
49440;SDS011;35317;51.978;6.296;2023-04-03T05:49:16;1.95;;;0.80;;
49440;SDS011;35317;51.978;6.296;2023-04-03T05:54:27;1.42;;;0.80;;
49440;SDS011;35317;51.978;6.296;2023-04-03T05:59:29;1.30;;;0.90;;
49440;SDS011;35317;51.978;6.296;2023-04-03T06:04:30;4.40;;;0.80;;
49440;SDS011;35317;51.978;6.296;2023-04-03T06:09:31;5.03;;;0.95;;
49440;SDS011;35317;51.978;6.296;2023-04-03T06:14:35;3.40;;;1.23;;
49440;SDS011;35317;51.978;6.296;2023-04-03T06:19:36;3.63;;;0.77;;
49440;SDS011;35317;51.978;6.296;2023-04-03T06:24:37;2.20;;;0.80;;
49440;SDS011;35317;51.978;6.296;2023-04-03T06:29:38;2.95;;;0.80;;
49440;SDS011;35317;51.978;6.296;2023-04-03T06:34:39;1.38;;;0.70;;
49440;SDS011;35317;51.978;6.296;2023-04-03T06:39:39;5.70;;;1.00;;
49440;SDS011;35317;51.978;6.296;2023-04-03T06:44:40;3.08;;;0.88;;
49440;SDS011;35317;51.978;6.296;2023-04-03T06:49:41;2.30;;;0.80;;
49440;SDS011;35317;51.978;6.296;2023-04-03T06:54:43;3.10;;;1.08;;
49440;SDS011;35317;51.978;6.296;2023-04-03T06:59:44;2.42;;;1.00;;
49440;SDS011;35317;51.978;6.296;2023-04-03T07:04:45;2.60;;;0.90;;
49440;SDS011;35317;51.978;6.296;2023-04-03T07:09:45;1.55;;;0.85;;
49440;SDS011;35317;51.978;6.296;2023-04-03T07:14:48;1.38;;;0.73;;
49440;SDS011;35317;51.978;6.296;2023-04-03T07:19:48;2.95;;;1.08;;
49440;SDS011;35317;51.978;6.296;2023-04-03T07:24:49;1.73;;;0.75;;
49440;SDS011;35317;51.978;6.296;2023-04-03T07:29:51;0.88;;;0.50;;
49440;SDS011;35317;51.978;6.296;2023-04-03T07:34:52;5.28;;;1.33;;
49440;SDS011;35317;51.978;6.296;2023-04-03T07:39:52;1.25;;;0.60;;
49440;SDS011;35317;51.978;6.296;2023-04-03T07:44:55;3.13;;;0.85;;
49440;SDS011;35317;51.978;6.296;2023-04-03T07:49:56;2.53;;;1.08;;
49440;SDS011;35317;51.978;6.296;2023-04-03T07:54:57;1.48;;;0.50;;
49440;SDS011;35317;51.978;6.296;2023-04-03T07:59:58;3.13;;;0.60;;
49440;SDS011;35317;51.978;6.296;2023-04-03T08:04:59;0.95;;;0.40;;
49440;SDS011;35317;51.978;6.296;2023-04-03T08:10:00;1.33;;;0.57;;
49440;SDS011;35317;51.978;6.296;2023-04-03T08:15:01;0.90;;;0.57;;
49440;SDS011;35317;51.978;6.296;2023-04-03T08:20:03;1.15;;;0.40;;
49440;SDS011;35317;51.978;6.296;2023-04-03T08:25:06;1.08;;;0.57;;
49440;SDS011;35317;51.978;6.296;2023-04-03T08:30:08;2.25;;;0.60;;
49440;SDS011;35317;51.978;6.296;2023-04-03T08:35:09;0.47;;;0.30;;
49440;SDS011;35317;51.978;6.296;2023-04-03T08:40:13;1.27;;;0.47;;
49440;SDS011;35317;51.978;6.296;2023-04-03T08:45:17;0.32;;;0.30;;
49440;SDS011;35317;51.978;6.296;2023-04-03T08:50:33;5.53;;;0.60;;
49440;SDS011;35317;51.978;6.296;2023-04-03T08:55:47;2.45;;;0.80;;
49440;SDS011;35317;51.978;6.296;2023-04-03T09:00:51;0.85;;;0.40;;
49440;SDS011;35317;51.978;6.296;2023-04-03T09:06:05;0.65;;;0.28;;
49440;SDS011;35317;51.978;6.296;2023-04-03T09:21:38;0.73;;;0.30;;
49440;SDS011;35317;51.978;6.296;2023-04-03T09:26:51;1.52;;;0.30;;
49440;SDS011;35317;51.978;6.296;2023-04-03T09:32:12;0.35;;;0.20;;
49440;SDS011;35317;51.978;6.296;2023-04-03T09:37:36;1.52;;;0.30;;
49440;SDS011;35317;51.978;6.296;2023-04-03T09:42:41;1.00;;;0.20;;
49440;SDS011;35317;51.978;6.296;2023-04-03T09:47:42;2.05;;;0.22;;
49440;SDS011;35317;51.978;6.296;2023-04-03T09:52:45;0.20;;;0.15;;
49440;SDS011;35317;51.978;6.296;2023-04-03T09:57:48;0.47;;;0.20;;
49440;SDS011;35317;51.978;6.296;2023-04-03T10:02:51;0.52;;;0.28;;
49440;SDS011;35317;51.978;6.296;2023-04-03T10:08:19;0.15;;;0.13;;
49440;SDS011;35317;51.978;6.296;2023-04-03T10:13:24;0.40;;;0.10;;
49440;SDS011;35317;51.978;6.296;2023-04-03T10:34:21;0.15;;;0.15;;
49440;SDS011;35317;51.978;6.296;2023-04-03T10:50:53;0.55;;;0.20;;
49440;SDS011;35317;51.978;6.296;2023-04-03T11:01:52;0.75;;;0.40;;
49440;SDS011;35317;51.978;6.296;2023-04-03T11:07:08;0.57;;;0.30;;
49440;SDS011;35317;51.978;6.296;2023-04-03T11:12:38;0.70;;;0.30;;
49440;SDS011;35317;51.978;6.296;2023-04-03T11:17:48;0.47;;;0.22;;
49440;SDS011;35317;51.978;6.296;2023-04-03T11:28:26;0.82;;;0.50;;
49440;SDS011;35317;51.978;6.296;2023-04-03T11:33:37;0.30;;;0.20;;
49440;SDS011;35317;51.978;6.296;2023-04-03T11:38:56;0.60;;;0.28;;
49440;SDS011;35317;51.978;6.296;2023-04-03T11:44:04;0.63;;;0.20;;
49440;SDS011;35317;51.978;6.296;2023-04-03T11:50:07;0.52;;;0.30;;
49440;SDS011;35317;51.978;6.296;2023-04-03T12:05:43;1.35;;;0.50;;
49440;SDS011;35317;51.978;6.296;2023-04-03T12:11:02;2.25;;;0.38;;
49440;SDS011;35317;51.978;6.296;2023-04-03T12:21:23;1.45;;;0.43;;
49440;SDS011;35317;51.978;6.296;2023-04-03T12:26:28;0.50;;;0.43;;
49440;SDS011;35317;51.978;6.296;2023-04-03T12:43:36;0.65;;;0.40;;
49440;SDS011;35317;51.978;6.296;2023-04-03T12:49:01;1.30;;;0.38;;
49440;SDS011;35317;51.978;6.296;2023-04-03T12:54:03;0.77;;;0.45;;
49440;SDS011;35317;51.978;6.296;2023-04-03T12:59:25;0.77;;;0.45;;
49440;SDS011;35317;51.978;6.296;2023-04-03T13:04:27;1.42;;;0.60;;
49440;SDS011;35317;51.978;6.296;2023-04-03T13:09:31;1.25;;;0.50;;
49440;SDS011;35317;51.978;6.296;2023-04-03T13:14:33;0.63;;;0.35;;
49440;SDS011;35317;51.978;6.296;2023-04-03T13:19:34;0.85;;;0.50;;
49440;SDS011;35317;51.978;6.296;2023-04-03T13:24:36;1.08;;;0.40;;
49440;SDS011;35317;51.978;6.296;2023-04-03T13:29:38;1.03;;;0.77;;
49440;SDS011;35317;51.978;6.296;2023-04-03T13:34:41;0.98;;;0.38;;
49440;SDS011;35317;51.978;6.296;2023-04-03T13:39:43;1.27;;;0.50;;
49440;SDS011;35317;51.978;6.296;2023-04-03T13:44:46;2.42;;;0.50;;
49440;SDS011;35317;51.978;6.296;2023-04-03T13:50:29;1.10;;;0.40;;
49440;SDS011;35317;51.978;6.296;2023-04-03T13:55:16;0.70;;;0.40;;
49440;SDS011;35317;51.978;6.296;2023-04-03T14:00:21;1.55;;;0.77;;
49440;SDS011;35317;51.978;6.296;2023-04-03T14:05:37;2.78;;;0.50;;
49440;SDS011;35317;51.978;6.296;2023-04-03T14:10:38;3.60;;;0.60;;
49440;SDS011;35317;51.978;6.296;2023-04-03T14:15:39;1.65;;;0.60;;
49440;SDS011;35317;51.978;6.296;2023-04-03T14:20:41;0.55;;;0.40;;
49440;SDS011;35317;51.978;6.296;2023-04-03T14:25:42;1.25;;;0.57;;
49440;SDS011;35317;51.978;6.296;2023-04-03T14:30:44;1.55;;;0.60;;
49440;SDS011;35317;51.978;6.296;2023-04-03T14:35:46;0.90;;;0.47;;
49440;SDS011;35317;51.978;6.296;2023-04-03T14:40:48;1.30;;;0.40;;
49440;SDS011;35317;51.978;6.296;2023-04-03T14:45:49;2.72;;;0.60;;
49440;SDS011;35317;51.978;6.296;2023-04-03T14:50:51;1.55;;;0.50;;
49440;SDS011;35317;51.978;6.296;2023-04-03T14:55:52;1.48;;;0.55;;
49440;SDS011;35317;51.978;6.296;2023-04-03T15:00:53;1.23;;;0.80;;
49440;SDS011;35317;51.978;6.296;2023-04-03T15:05:54;0.40;;;0.40;;
49440;SDS011;35317;51.978;6.296;2023-04-03T15:10:55;0.82;;;0.52;;
49440;SDS011;35317;51.978;6.296;2023-04-03T15:15:56;3.03;;;0.70;;
49440;SDS011;35317;51.978;6.296;2023-04-03T15:20:57;1.20;;;0.80;;
49440;SDS011;35317;51.978;6.296;2023-04-03T15:25:57;2.08;;;0.95;;
49440;SDS011;35317;51.978;6.296;2023-04-03T15:30:58;2.33;;;0.85;;
49440;SDS011;35317;51.978;6.296;2023-04-03T15:35:59;1.55;;;0.82;;
49440;SDS011;35317;51.978;6.296;2023-04-03T15:41:00;2.58;;;0.70;;
49440;SDS011;35317;51.978;6.296;2023-04-03T15:46:01;1.55;;;0.73;;
49440;SDS011;35317;51.978;6.296;2023-04-03T15:51:03;1.02;;;0.40;;
49440;SDS011;35317;51.978;6.296;2023-04-03T15:56:05;1.70;;;0.55;;
49440;SDS011;35317;51.978;6.296;2023-04-03T16:01:09;0.88;;;0.52;;
49440;SDS011;35317;51.978;6.296;2023-04-03T16:06:11;0.68;;;0.50;;
49440;SDS011;35317;51.978;6.296;2023-04-03T16:11:14;0.63;;;0.35;;
49440;SDS011;35317;51.978;6.296;2023-04-03T16:16:15;1.00;;;0.50;;
49440;SDS011;35317;51.978;6.296;2023-04-03T16:21:18;1.13;;;0.45;;
49440;SDS011;35317;51.978;6.296;2023-04-03T16:26:19;0.63;;;0.47;;
49440;SDS011;35317;51.978;6.296;2023-04-03T16:31:20;0.75;;;0.60;;
49440;SDS011;35317;51.978;6.296;2023-04-03T16:36:23;2.05;;;0.60;;
49440;SDS011;35317;51.978;6.296;2023-04-03T16:41:25;4.55;;;0.60;;
49440;SDS011;35317;51.978;6.296;2023-04-03T16:46:26;3.97;;;0.60;;
49440;SDS011;35317;51.978;6.296;2023-04-03T16:51:27;1.67;;;0.50;;
49440;SDS011;35317;51.978;6.296;2023-04-03T16:56:28;0.60;;;0.30;;
49440;SDS011;35317;51.978;6.296;2023-04-03T17:01:29;1.40;;;0.50;;
49440;SDS011;35317;51.978;6.296;2023-04-03T17:06:30;1.65;;;0.70;;
49440;SDS011;35317;51.978;6.296;2023-04-03T17:11:31;2.30;;;1.10;;
49440;SDS011;35317;51.978;6.296;2023-04-03T17:16:33;1.55;;;0.40;;
49440;SDS011;35317;51.978;6.296;2023-04-03T17:21:36;1.08;;;0.63;;
49440;SDS011;35317;51.978;6.296;2023-04-03T17:26:37;2.05;;;0.60;;
49440;SDS011;35317;51.978;6.296;2023-04-03T17:31:40;0.63;;;0.38;;
49440;SDS011;35317;51.978;6.296;2023-04-03T17:36:41;0.65;;;0.52;;
49440;SDS011;35317;51.978;6.296;2023-04-03T17:41:41;0.73;;;0.32;;
49440;SDS011;35317;51.978;6.296;2023-04-03T17:46:44;1.23;;;0.50;;
49440;SDS011;35317;51.978;6.296;2023-04-03T17:51:45;1.38;;;0.45;;
49440;SDS011;35317;51.978;6.296;2023-04-03T17:56:46;0.80;;;0.60;;
49440;SDS011;35317;51.978;6.296;2023-04-03T18:01:47;0.82;;;0.43;;
49440;SDS011;35317;51.978;6.296;2023-04-03T18:06:48;1.83;;;0.40;;
49440;SDS011;35317;51.978;6.296;2023-04-03T18:11:53;1.80;;;0.70;;
49440;SDS011;35317;51.978;6.296;2023-04-03T18:16:56;2.05;;;0.52;;
49440;SDS011;35317;51.978;6.296;2023-04-03T18:21:58;4.32;;;0.60;;
49440;SDS011;35317;51.978;6.296;2023-04-03T18:27:10;1.52;;;0.70;;
49440;SDS011;35317;51.978;6.296;2023-04-03T18:32:14;1.27;;;0.50;;
49440;SDS011;35317;51.978;6.296;2023-04-03T18:37:18;1.98;;;0.55;;
49440;SDS011;35317;51.978;6.296;2023-04-03T18:42:22;1.25;;;0.40;;
49440;SDS011;35317;51.978;6.296;2023-04-03T18:47:25;5.45;;;0.68;;
49440;SDS011;35317;51.978;6.296;2023-04-03T18:52:28;1.88;;;0.52;;
49440;SDS011;35317;51.978;6.296;2023-04-03T18:57:28;0.80;;;0.50;;
49440;SDS011;35317;51.978;6.296;2023-04-03T19:02:29;1.50;;;0.60;;
49440;SDS011;35317;51.978;6.296;2023-04-03T19:07:30;1.70;;;0.60;;
49440;SDS011;35317;51.978;6.296;2023-04-03T19:12:31;0.68;;;0.60;;
49440;SDS011;35317;51.978;6.296;2023-04-03T19:17:32;2.40;;;0.70;;
49440;SDS011;35317;51.978;6.296;2023-04-03T19:22:33;3.00;;;0.85;;
49440;SDS011;35317;51.978;6.296;2023-04-03T19:27:34;3.10;;;0.70;;
49440;SDS011;35317;51.978;6.296;2023-04-03T19:32:35;1.63;;;0.70;;
49440;SDS011;35317;51.978;6.296;2023-04-03T19:37:36;1.25;;;0.70;;
49440;SDS011;35317;51.978;6.296;2023-04-03T19:42:37;1.42;;;0.90;;
49440;SDS011;35317;51.978;6.296;2023-04-03T19:47:41;1.77;;;0.80;;
49440;SDS011;35317;51.978;6.296;2023-04-03T19:52:43;3.63;;;1.10;;
49440;SDS011;35317;51.978;6.296;2023-04-03T19:57:46;3.97;;;1.40;;
49440;SDS011;35317;51.978;6.296;2023-04-03T20:02:47;4.78;;;2.22;;
49440;SDS011;35317;51.978;6.296;2023-04-03T20:07:48;6.75;;;2.60;;
49440;SDS011;35317;51.978;6.296;2023-04-03T20:12:49;6.70;;;3.22;;
49440;SDS011;35317;51.978;6.296;2023-04-03T20:17:50;6.40;;;3.22;;
49440;SDS011;35317;51.978;6.296;2023-04-03T20:22:51;8.15;;;2.50;;
49440;SDS011;35317;51.978;6.296;2023-04-03T20:27:53;4.13;;;1.90;;
49440;SDS011;35317;51.978;6.296;2023-04-03T20:32:53;4.32;;;1.98;;
49440;SDS011;35317;51.978;6.296;2023-04-03T20:37:55;5.13;;;1.60;;
49440;SDS011;35317;51.978;6.296;2023-04-03T20:42:56;6.85;;;1.75;;
49440;SDS011;35317;51.978;6.296;2023-04-03T20:47:57;4.22;;;1.90;;
49440;SDS011;35317;51.978;6.296;2023-04-03T20:52:59;2.08;;;1.58;;
49440;SDS011;35317;51.978;6.296;2023-04-03T20:58:01;2.67;;;1.50;;
49440;SDS011;35317;51.978;6.296;2023-04-03T21:03:02;3.17;;;1.80;;
49440;SDS011;35317;51.978;6.296;2023-04-03T21:19:38;3.20;;;1.60;;
49440;SDS011;35317;51.978;6.296;2023-04-03T21:24:45;2.63;;;1.40;;
49440;SDS011;35317;51.978;6.296;2023-04-03T21:29:46;6.45;;;1.70;;
49440;SDS011;35317;51.978;6.296;2023-04-03T21:34:46;4.07;;;1.90;;
49440;SDS011;35317;51.978;6.296;2023-04-03T21:39:47;4.93;;;1.70;;
49440;SDS011;35317;51.978;6.296;2023-04-03T21:44:48;2.42;;;1.67;;
49440;SDS011;35317;51.978;6.296;2023-04-03T21:49:49;2.95;;;1.40;;
49440;SDS011;35317;51.978;6.296;2023-04-03T21:54:50;4.32;;;1.85;;
49440;SDS011;35317;51.978;6.296;2023-04-03T21:59:50;5.15;;;2.63;;
49440;SDS011;35317;51.978;6.296;2023-04-03T22:04:51;5.60;;;2.58;;
49440;SDS011;35317;51.978;6.296;2023-04-03T22:09:53;6.90;;;2.60;;
49440;SDS011;35317;51.978;6.296;2023-04-03T22:14:54;5.07;;;2.00;;
49440;SDS011;35317;51.978;6.296;2023-04-03T22:19:55;4.25;;;2.17;;
49440;SDS011;35317;51.978;6.296;2023-04-03T22:24:56;6.22;;;2.05;;
49440;SDS011;35317;51.978;6.296;2023-04-03T22:29:56;2.65;;;1.50;;
49440;SDS011;35317;51.978;6.296;2023-04-03T22:34:57;4.68;;;1.65;;
49440;SDS011;35317;51.978;6.296;2023-04-03T22:39:59;7.15;;;1.60;;
49440;SDS011;35317;51.978;6.296;2023-04-03T22:45:00;3.72;;;1.63;;
49440;SDS011;35317;51.978;6.296;2023-04-03T22:50:00;2.63;;;1.38;;
49440;SDS011;35317;51.978;6.296;2023-04-03T22:55:01;4.85;;;1.73;;
49440;SDS011;35317;51.978;6.296;2023-04-03T23:00:02;2.65;;;1.60;;
49440;SDS011;35317;51.978;6.296;2023-04-03T23:05:04;5.57;;;1.58;;
49440;SDS011;35317;51.978;6.296;2023-04-03T23:10:05;2.58;;;1.35;;
49440;SDS011;35317;51.978;6.296;2023-04-03T23:15:06;3.20;;;1.80;;
49440;SDS011;35317;51.978;6.296;2023-04-03T23:20:08;2.40;;;1.30;;
49440;SDS011;35317;51.978;6.296;2023-04-03T23:25:09;2.40;;;1.40;;
49440;SDS011;35317;51.978;6.296;2023-04-03T23:30:10;2.47;;;1.30;;
49440;SDS011;35317;51.978;6.296;2023-04-03T23:35:11;3.40;;;1.63;;
49440;SDS011;35317;51.978;6.296;2023-04-03T23:40:12;3.28;;;1.50;;
49440;SDS011;35317;51.978;6.296;2023-04-03T23:45:13;2.63;;;1.35;;
49440;SDS011;35317;51.978;6.296;2023-04-03T23:50:14;3.22;;;1.58;;
49440;SDS011;35317;51.978;6.296;2023-04-03T23:55:14;3.42;;;1.48;;
